Crystal, North Dakota
Current Conditions -  °F | °C
As of 6:15 AM on Sunday 25 Jan 2015 (Local Time) from K2C8 Reporting Station
Overcast Overcast  
Wind Chill:   Ceiling: 4000
Heat Index: 16°   Visibility: 10mi
Dew Point: 10°   Wind: 5mph
Humidity: 79%   Direction: 350°N
Pressure: 30.02"   Gusts: NA
Location:  48.6°N, 97.67°W
Report Text: K2C8 251215Z AUTO 35004KT 10SM OVC040 M09/M12 A3002 RMK AO2
Loading
Personal Weather Stations






























Interactive Weather Map New forecast layout! Learn more

10-Day Weather Forecast

Advertisements
Track Severe Weather on mobile